createdAt,value
2017-10-05T00:00:24.520Z,67.76
2017-10-05T00:00:52.642Z,67.94
2017-10-05T00:01:20.644Z,67.66
2017-10-05T00:01:48.732Z,67.76
2017-10-05T00:02:16.533Z,67.76
2017-10-05T00:02:44.520Z,67.94
2017-10-05T00:03:12.522Z,67.85
2017-10-05T00:03:40.533Z,67.56
2017-10-05T00:04:08.516Z,67.56
2017-10-05T00:04:36.544Z,67.66
2017-10-05T00:05:04.538Z,67.76
2017-10-05T00:05:32.629Z,67.76
2017-10-05T00:06:00.770Z,67.66
2017-10-05T00:06:28.696Z,68.13
2017-10-05T00:06:56.796Z,67.66
2017-10-05T00:07:24.684Z,68.13
2017-10-05T00:07:52.916Z,67.76
2017-10-05T00:08:21.001Z,68.04
2017-10-05T00:08:49.029Z,67.85
2017-10-05T00:09:17.096Z,68.23
2017-10-05T00:09:45.118Z,68.04
2017-10-05T00:10:12.981Z,67.94
2017-10-05T00:10:41.107Z,68.04
2017-10-05T00:11:09.186Z,68.33
2017-10-05T00:11:37.209Z,68.13
2017-10-05T00:12:05.291Z,67.94
2017-10-05T00:12:33.304Z,68.52
2017-10-05T00:13:01.308Z,68.71
2017-10-05T00:13:29.388Z,68.52
2017-10-05T00:13:57.518Z,68.8
2017-10-05T00:14:25.520Z,68.9
2017-10-05T00:14:53.507Z,68.8
2017-10-05T00:15:21.529Z,68.8
2017-10-05T00:15:49.531Z,69.19
2017-10-05T00:16:17.628Z,69.57
2017-10-05T00:16:45.692Z,69.48
2017-10-05T00:17:13.793Z,69.38
2017-10-05T00:17:42.008Z,69.48
2017-10-05T00:18:10.099Z,69.25
2017-10-05T00:18:38.240Z,69.57
2017-10-05T00:19:06.142Z,69.38
2017-10-05T00:19:34.032Z,69.48
2017-10-05T00:20:02.136Z,69.76
2017-10-05T00:20:30.169Z,69.67
2017-10-05T00:20:58.170Z,69.57
2017-10-05T00:21:26.092Z,69.57
2017-10-05T00:21:54.189Z,69.48
2017-10-05T00:22:22.275Z,69.48
2017-10-05T00:22:50.354Z,69.64
2017-10-05T00:23:18.240Z,69.29
2017-10-05T00:23:46.196Z,69.44
2017-10-05T00:24:14.207Z,69.73
2017-10-05T00:24:42.115Z,70.11
2017-10-05T00:25:09.991Z,70.11
2017-10-05T00:25:38.082Z,70.59
2017-10-05T00:26:06.057Z,70.3
2017-10-05T00:26:34.041Z,70.78
2017-10-05T00:27:01.949Z,70.87
2017-10-05T00:27:30.066Z,70.78
2017-10-05T00:28:29.961Z,70.5
2017-10-05T00:32:41.629Z,71.16
2017-10-05T00:36:46.866Z,70.5
2017-10-05T00:37:17.780Z,70.3
2017-10-05T00:37:45.864Z,70.3
2017-10-05T00:38:13.980Z,70.5
2017-10-05T00:38:42.258Z,70.5
2017-10-05T00:39:10.298Z,70.5
2017-10-05T00:39:38.345Z,70.4
2017-10-05T00:40:06.345Z,70.4
2017-10-05T00:40:34.143Z,70.4
2017-10-05T00:41:02.236Z,70.5
2017-10-05T00:41:30.336Z,70.4
2017-10-05T00:41:58.230Z,70.4
2017-10-05T00:42:26.249Z,70.59
2017-10-05T00:42:54.386Z,70.59
2017-10-05T00:43:22.401Z,70.78
2017-10-05T00:43:50.595Z,70.68
2017-10-05T00:44:18.620Z,70.78
2017-10-05T00:44:46.613Z,70.59
2017-10-05T00:45:14.614Z,70.68
2017-10-05T00:45:42.644Z,71.64
2017-10-05T00:46:10.560Z,70.87
2017-10-05T00:46:38.578Z,71.36
2017-10-05T00:47:06.592Z,71.36
2017-10-05T00:47:34.729Z,71.36
2017-10-05T00:48:02.743Z,71.07
2017-10-05T00:48:30.857Z,71.26
2017-10-05T00:48:59.134Z,71.64
2017-10-05T00:49:27.194Z,71.07
2017-10-05T00:49:55.221Z,71.26
2017-10-05T00:50:23.340Z,71.36
2017-10-05T00:50:51.418Z,71.73
2017-10-05T00:51:19.513Z,71.73
2017-10-05T00:51:47.431Z,71.73
2017-10-05T00:52:15.433Z,71.64
2017-10-05T00:52:43.469Z,71.45
2017-10-05T00:53:11.549Z,71.93
2017-10-05T00:53:39.943Z,71.93
2017-10-05T00:54:07.958Z,71.89
2017-10-05T00:54:36.062Z,71.99
2017-10-05T00:55:04.178Z,72.41
2017-10-05T00:55:32.304Z,72.31
2017-10-05T00:56:00.188Z,72.41
2017-10-05T00:56:28.164Z,72.41
2017-10-05T00:56:56.275Z,72.69
2017-10-05T00:57:24.294Z,72.22
2017-10-05T00:57:52.410Z,72.02
2017-10-05T00:58:20.390Z,72.22
2017-10-05T00:58:48.533Z,72.22
2017-10-05T00:59:16.534Z,72.12
2017-10-05T00:59:44.668Z,72.02
2017-10-05T01:00:12.785Z,71.93
2017-10-05T01:00:40.925Z,71.93
2017-10-05T01:01:08.944Z,71.45
2017-10-05T01:01:36.967Z,71.64
2017-10-05T01:02:05.002Z,72.02
2017-10-05T01:02:32.978Z,71.45
2017-10-05T01:03:01.107Z,71.45
2017-10-05T01:03:29.243Z,71.45
2017-10-05T01:03:57.507Z,72.02
2017-10-05T01:04:25.516Z,71.45
2017-10-05T01:04:53.496Z,71.83
2017-10-05T01:05:21.614Z,71.73
2017-10-05T01:05:49.705Z,71.55
2017-10-05T01:06:17.596Z,71.55
2017-10-05T01:06:45.591Z,71.64
2017-10-05T01:07:13.701Z,71.64
2017-10-05T01:07:41.810Z,71.64
2017-10-05T01:08:09.844Z,71.73
2017-10-05T01:08:37.967Z,72.02
2017-10-05T01:09:05.971Z,71.45
2017-10-05T01:09:33.944Z,71.55
2017-10-05T01:10:01.926Z,71.55
2017-10-05T01:10:29.938Z,71.64
2017-10-05T01:10:58.054Z,71.36
2017-10-05T01:11:25.918Z,71.83
2017-10-05T01:11:53.916Z,71.83
2017-10-05T01:12:21.938Z,71.93
2017-10-05T01:12:50.022Z,71.83
2017-10-05T01:13:17.946Z,72.02
2017-10-05T01:13:45.838Z,71.83
2017-10-05T01:14:14.038Z,71.83
2017-10-05T01:14:42.033Z,71.83
2017-10-05T01:15:10.041Z,72.22
2017-10-05T01:15:38.048Z,72.22
2017-10-05T01:16:06.047Z,72.12
2017-10-05T01:16:34.174Z,71.93
2017-10-05T01:17:02.285Z,72.02
2017-10-05T01:17:30.410Z,71.83
2017-10-05T01:17:58.512Z,71.83
2017-10-05T01:18:26.497Z,71.89
2017-10-05T01:18:54.861Z,71.8
2017-10-05T01:19:22.908Z,71.99
2017-10-05T01:19:51.024Z,72.28
2017-10-05T01:20:19.152Z,72.18
2017-10-05T01:20:47.121Z,72.18
2017-10-05T01:21:15.204Z,72.22
2017-10-05T01:21:43.231Z,72.31
2017-10-05T01:22:11.135Z,72.18
2017-10-05T01:22:39.279Z,72.37
2017-10-05T01:23:07.419Z,72.47
2017-10-05T01:23:35.395Z,72.56
2017-10-05T01:24:03.714Z,72.69
2017-10-05T01:24:31.817Z,72.56
2017-10-05T01:24:59.810Z,72.56
2017-10-05T01:25:27.745Z,72.66
2017-10-05T01:25:55.640Z,72.56
2017-10-05T01:26:23.461Z,72.66
2017-10-05T01:26:51.488Z,72.47
2017-10-05T01:27:19.405Z,72.28
2017-10-05T01:27:47.420Z,72.47
2017-10-05T01:28:15.392Z,72.28
2017-10-05T01:28:43.474Z,72.47
2017-10-05T01:29:11.799Z,72.47
2017-10-05T01:29:39.811Z,72.56
2017-10-05T01:30:07.702Z,72.47
2017-10-05T01:30:35.722Z,72.66
2017-10-05T01:31:03.824Z,73.23
2017-10-05T01:31:31.941Z,73.14
2017-10-05T01:32:00.029Z,73.23
2017-10-05T01:32:28.021Z,73.33
2017-10-05T01:32:56.116Z,73.52
2017-10-05T01:33:24.233Z,73.23
2017-10-05T01:33:52.256Z,73.04
2017-10-05T01:34:20.529Z,73.33
2017-10-05T01:34:48.562Z,73.23
2017-10-05T01:35:16.541Z,73.23
2017-10-05T01:35:44.656Z,73.33
2017-10-05T01:36:12.763Z,73.52
2017-10-05T01:36:40.855Z,73.33
2017-10-05T01:37:08.758Z,73.43
2017-10-05T01:37:36.770Z,73.43
2017-10-05T01:38:04.803Z,73.43
2017-10-05T01:38:32.821Z,73.14
2017-10-05T01:39:00.852Z,73.33
2017-10-05T01:39:29.120Z,73.33
2017-10-05T01:39:57.148Z,73.9
2017-10-05T01:40:25.146Z,73.43
2017-10-05T01:40:53.268Z,73.52
2017-10-05T01:41:21.260Z,73.61
2017-10-05T01:41:49.235Z,73.71
2017-10-05T01:42:17.380Z,73.9
2017-10-05T01:42:45.496Z,73.33
2017-10-05T01:43:13.530Z,73.14
2017-10-05T01:43:41.609Z,73.14
2017-10-05T01:44:09.962Z,73.23
2017-10-05T01:44:37.852Z,73.43
2017-10-05T01:45:05.821Z,73.52
2017-10-05T01:45:33.828Z,73.43
2017-10-05T01:46:01.940Z,73.71
2017-10-05T01:46:29.842Z,73.71
2017-10-05T01:46:57.840Z,73.61
2017-10-05T01:47:25.728Z,73.71
2017-10-05T01:47:53.848Z,73.43
2017-10-05T01:48:21.860Z,73.33
2017-10-05T01:48:49.974Z,73.23
2017-10-05T01:49:18.330Z,73.52
2017-10-05T01:49:46.456Z,73.33
2017-10-05T01:50:14.432Z,73.33
2017-10-05T01:50:42.533Z,73.23
2017-10-05T01:51:10.665Z,73.52
2017-10-05T01:51:38.754Z,73.33
2017-10-05T01:52:06.776Z,73.61
2017-10-05T01:52:34.787Z,73.52
2017-10-05T01:53:02.883Z,73.52
2017-10-05T01:53:30.797Z,73.46
2017-10-05T01:53:58.733Z,73.36
2017-10-05T01:54:26.861Z,73.27
2017-10-05T01:54:54.963Z,73.08
2017-10-05T01:55:23.068Z,73.08
2017-10-05T01:55:51.159Z,73.55
2017-10-05T01:56:19.199Z,73.17
2017-10-05T01:56:47.236Z,73.27
2017-10-05T01:57:15.329Z,73.17
2017-10-05T01:57:43.341Z,73.27
2017-10-05T01:58:11.430Z,73.17
2017-10-05T01:58:39.443Z,73.17
2017-10-05T01:59:07.437Z,73.08
2017-10-05T01:59:35.584Z,72.98
2017-10-05T02:00:03.599Z,73.17
2017-10-05T02:00:31.596Z,73.17
2017-10-05T02:00:59.700Z,72.5
2017-10-05T02:01:27.701Z,72.41
2017-10-05T02:01:55.801Z,72.69
2017-10-05T02:02:23.833Z,72.41
2017-10-05T02:02:51.907Z,72.02
2017-10-05T02:03:19.949Z,71.93
2017-10-05T02:03:47.929Z,71.83
2017-10-05T02:04:15.944Z,72.02
2017-10-05T02:04:44.306Z,71.83
2017-10-05T02:05:12.315Z,71.68
2017-10-05T02:05:40.323Z,71.93
2017-10-05T02:06:08.289Z,71.73
2017-10-05T02:06:36.381Z,71.93
2017-10-05T02:07:04.364Z,71.73
2017-10-05T02:07:32.467Z,72.02
2017-10-05T02:08:00.509Z,72.02
2017-10-05T02:08:28.617Z,71.83
2017-10-05T02:08:56.587Z,71.93
2017-10-05T02:09:24.855Z,71.73
2017-10-05T02:09:52.957Z,71.93
2017-10-05T02:10:20.987Z,71.73
2017-10-05T02:10:48.995Z,71.64
2017-10-05T02:11:17.112Z,71.73
2017-10-05T02:11:45.215Z,71.93
2017-10-05T02:12:13.214Z,71.93
2017-10-05T02:12:41.268Z,72.31
2017-10-05T02:13:09.350Z,72.22
2017-10-05T02:13:37.341Z,72.12
2017-10-05T02:14:05.378Z,72.31
2017-10-05T02:14:33.708Z,72.31
2017-10-05T02:15:01.850Z,72.6
2017-10-05T02:15:29.983Z,72.5
2017-10-05T02:15:58.071Z,72.69
2017-10-05T02:16:26.077Z,73.17
2017-10-05T02:16:53.966Z,72.98
2017-10-05T02:17:21.981Z,72.79
2017-10-05T02:17:50.095Z,72.79
2017-10-05T02:18:17.977Z,73.08
2017-10-05T02:18:45.873Z,73.17
2017-10-05T02:19:13.982Z,73.17
2017-10-05T02:19:42.004Z,72.6
2017-10-05T02:20:09.905Z,72.6
2017-10-05T02:20:37.917Z,72.41
2017-10-05T02:21:05.803Z,72.69
2017-10-05T02:21:33.721Z,72.22
2017-10-05T02:22:01.693Z,72.31
2017-10-05T02:22:29.835Z,72.31
2017-10-05T02:22:57.623Z,72.22
2017-10-05T02:23:25.750Z,72.5
2017-10-05T02:23:53.842Z,72.6
2017-10-05T02:24:21.763Z,72.41
2017-10-05T02:24:50.040Z,72.31
2017-10-05T02:25:18.169Z,72.12
2017-10-05T02:25:46.099Z,72.31
2017-10-05T02:26:14.020Z,72.31
2017-10-05T02:26:41.924Z,72.5
2017-10-05T02:27:10.019Z,72.5
2017-10-05T02:27:38.030Z,72.69
2017-10-05T02:28:06.046Z,72.41
2017-10-05T02:28:34.039Z,72.31
2017-10-05T02:29:02.034Z,72.22
2017-10-05T02:29:30.172Z,72.02
2017-10-05T02:29:58.316Z,72.22
2017-10-05T02:30:26.112Z,72.22
2017-10-05T02:30:54.219Z,72.22
2017-10-05T02:31:22.316Z,72.12
2017-10-05T02:31:50.440Z,72.41
2017-10-05T02:32:18.387Z,72.31
2017-10-05T02:32:46.508Z,72.41
2017-10-05T02:33:14.617Z,72.69
2017-10-05T02:33:42.489Z,72.69
2017-10-05T02:34:10.512Z,72.31
2017-10-05T02:34:38.842Z,72.5
2017-10-05T02:35:06.961Z,72.5
2017-10-05T02:35:35.068Z,73.46
2017-10-05T02:36:03.078Z,73.17
2017-10-05T02:36:30.968Z,73.17
2017-10-05T02:36:58.958Z,73.08
2017-10-05T02:37:26.884Z,73.17
2017-10-05T02:37:54.971Z,72.41
2017-10-05T02:38:22.989Z,72.69
2017-10-05T02:38:51.031Z,72.6
2017-10-05T02:39:19.014Z,72.6
2017-10-05T02:39:47.187Z,72.5
2017-10-05T02:40:15.076Z,72.41
2017-10-05T02:40:43.181Z,72.63
2017-10-05T02:41:11.366Z,72.31
2017-10-05T02:41:39.504Z,72.63
2017-10-05T02:42:07.392Z,72.73
2017-10-05T02:42:35.492Z,72.5
2017-10-05T02:43:03.588Z,72.5
2017-10-05T02:43:31.620Z,72.69
2017-10-05T02:43:59.737Z,72.25
2017-10-05T02:44:27.802Z,72.63
2017-10-05T02:44:55.956Z,72.54
2017-10-05T02:45:24.068Z,72.44
2017-10-05T02:45:52.119Z,72.22
2017-10-05T02:46:20.163Z,72.5
2017-10-05T02:46:48.290Z,72.5
2017-10-05T02:47:16.243Z,72.69
2017-10-05T02:47:44.346Z,72.5
2017-10-05T02:48:12.408Z,72.22
2017-10-05T02:48:40.329Z,72.41
2017-10-05T02:49:08.318Z,72.44
2017-10-05T02:49:36.320Z,72.63
2017-10-05T02:50:04.542Z,72.63
2017-10-05T02:50:32.570Z,72.79
2017-10-05T02:51:00.457Z,72.5
2017-10-05T02:51:28.582Z,72.83
2017-10-05T02:51:56.721Z,72.69
2017-10-05T02:52:24.792Z,72.25
2017-10-05T02:52:52.784Z,72.16
2017-10-05T02:53:20.790Z,72.12
2017-10-05T02:53:48.909Z,72.44
2017-10-05T02:54:16.837Z,72.25
2017-10-05T02:54:44.865Z,72.73
2017-10-05T02:55:13.062Z,72.79
2017-10-05T02:55:41.166Z,72.6
2017-10-05T02:56:09.279Z,72.31
2017-10-05T02:56:37.366Z,72.54
2017-10-05T02:57:05.252Z,72.54
2017-10-05T02:57:33.135Z,72.73
2017-10-05T02:58:01.237Z,72.63
2017-10-05T02:58:29.261Z,72.73
2017-10-05T02:58:57.312Z,72.63
2017-10-05T02:59:25.403Z,72.5
2017-10-05T02:59:53.587Z,72.31
2017-10-05T03:00:21.629Z,72.5
2017-10-05T03:00:49.775Z,72.54
2017-10-05T03:01:17.854Z,72.31
2017-10-05T03:01:45.972Z,72.22
2017-10-05T03:02:13.980Z,72.44
2017-10-05T03:02:42.078Z,72.73
2017-10-05T03:03:10.004Z,72.73
2017-10-05T03:03:37.975Z,72.34
2017-10-05T03:04:06.012Z,72.25
2017-10-05T03:04:33.996Z,71.97
2017-10-05T03:05:02.128Z,72.06
2017-10-05T03:05:30.153Z,71.97
2017-10-05T03:05:58.268Z,71.87
2017-10-05T03:06:26.257Z,71.87
2017-10-05T03:06:54.238Z,71.68
2017-10-05T03:07:22.150Z,71.68
2017-10-05T03:07:50.234Z,72.06
2017-10-05T03:08:18.132Z,71.48
2017-10-05T03:08:46.184Z,71.58
2017-10-05T03:09:14.214Z,71.87
2017-10-05T03:09:42.289Z,71.77
2017-10-05T03:10:10.511Z,71.77
2017-10-05T03:10:38.507Z,71.87
2017-10-05T03:11:06.433Z,72.06
2017-10-05T03:11:34.473Z,71.2
2017-10-05T03:12:02.612Z,71.11
2017-10-05T03:12:30.630Z,71.11
2017-10-05T03:12:58.727Z,71.01
2017-10-05T03:13:26.448Z,71.2
2017-10-05T03:13:54.555Z,71.3
2017-10-05T03:14:22.535Z,71.48
2017-10-05T03:14:50.542Z,71.3
2017-10-05T03:15:18.476Z,70.91
2017-10-05T03:15:46.581Z,71.39
2017-10-05T03:16:14.616Z,71.11
2017-10-05T03:16:42.714Z,71.2
2017-10-05T03:17:10.825Z,71.01
2017-10-05T03:17:38.929Z,71.01
2017-10-05T03:18:07.008Z,71.3
2017-10-05T03:18:34.915Z,71.11
2017-10-05T03:19:02.905Z,71.2
2017-10-05T03:19:30.904Z,71.39
2017-10-05T03:19:58.995Z,71.2
2017-10-05T03:20:27.162Z,71.87
2017-10-05T03:20:55.070Z,71.77
2017-10-05T03:21:23.181Z,71.77
2017-10-05T03:21:51.040Z,71.87
2017-10-05T03:22:19.132Z,71.58
2017-10-05T03:22:47.235Z,72.06
2017-10-05T03:23:15.237Z,71.68
2017-10-05T03:23:43.325Z,71.68
2017-10-05T03:24:11.298Z,71.97
2017-10-05T03:24:39.417Z,71.77
2017-10-05T03:25:07.683Z,71.68
2017-10-05T03:25:35.710Z,71.58
2017-10-05T03:26:03.598Z,71.97
2017-10-05T03:26:31.499Z,71.68
2017-10-05T03:26:59.498Z,71.58
2017-10-05T03:27:27.620Z,71.58
2017-10-05T03:27:55.719Z,71.48
2017-10-05T03:28:23.850Z,72.06
2017-10-05T03:28:51.737Z,72.25
2017-10-05T03:29:19.662Z,72.54
2017-10-05T03:29:47.632Z,72.54
2017-10-05T03:30:15.905Z,72.44
2017-10-05T03:30:43.941Z,72.54
2017-10-05T03:31:12.022Z,72.44
2017-10-05T03:31:40.011Z,72.25
2017-10-05T03:32:08.006Z,72.22
2017-10-05T03:32:35.903Z,72.69
2017-10-05T03:33:04.003Z,72.69
2017-10-05T03:33:32.115Z,72.41
2017-10-05T03:34:00.210Z,72.79
2017-10-05T03:34:28.242Z,72.79
2017-10-05T03:34:56.349Z,73.46
2017-10-05T03:35:24.704Z,72.79
2017-10-05T03:35:52.679Z,73.36
2017-10-05T03:36:20.502Z,73.27
2017-10-05T03:36:48.396Z,72.98
2017-10-05T03:37:16.501Z,73.11
2017-10-05T03:37:44.642Z,72.69
2017-10-05T03:38:12.726Z,72.6
2017-10-05T03:38:40.747Z,72.5
2017-10-05T03:39:08.722Z,72.69
2017-10-05T03:39:36.698Z,72.54
2017-10-05T03:40:04.827Z,73.59
2017-10-05T03:40:32.971Z,73.5
2017-10-05T03:41:00.947Z,73.21
2017-10-05T03:41:28.845Z,73.11
2017-10-05T03:41:56.838Z,73.17
2017-10-05T03:42:24.943Z,73.4
2017-10-05T03:42:52.719Z,72.98
2017-10-05T03:43:20.727Z,73.46
2017-10-05T03:43:48.523Z,73.17
2017-10-05T03:44:16.479Z,73.46
2017-10-05T03:44:44.406Z,73.36
2017-10-05T03:45:12.429Z,73.36
2017-10-05T03:45:40.582Z,73.27
2017-10-05T03:46:08.469Z,72.98
2017-10-05T03:46:36.465Z,73.65
2017-10-05T03:47:04.293Z,73.55
2017-10-05T03:47:32.375Z,73.94
2017-10-05T03:48:00.499Z,74.04
2017-10-05T03:48:28.340Z,74.13
2017-10-05T03:48:56.347Z,73.75
2017-10-05T03:49:24.456Z,74.22
2017-10-05T03:49:52.376Z,74.32
2017-10-05T03:50:20.482Z,74.13
2017-10-05T03:50:48.612Z,74.41
2017-10-05T03:51:16.551Z,74.32
2017-10-05T03:51:44.596Z,74.04
2017-10-05T03:52:12.742Z,74.22
2017-10-05T03:52:40.772Z,74.8
2017-10-05T03:53:08.763Z,74.99
2017-10-05T03:53:36.737Z,74.8
2017-10-05T03:54:04.823Z,74.7
2017-10-05T03:54:32.916Z,74.41
2017-10-05T03:55:00.816Z,74.41
2017-10-05T03:55:29.036Z,74.8
2017-10-05T03:55:56.921Z,74.04
2017-10-05T03:56:24.829Z,75.09
2017-10-05T03:56:52.867Z,74.8
2017-10-05T03:57:20.966Z,75.18
2017-10-05T03:57:48.954Z,75.18
2017-10-05T03:58:16.879Z,75.12
2017-10-05T03:58:44.872Z,75.18
2017-10-05T03:59:12.975Z,74.41
2017-10-05T03:59:40.984Z,74.55
2017-10-05T04:00:08.875Z,74.55
2017-10-05T04:00:37.053Z,74.55
2017-10-05T04:01:05.026Z,74.45
2017-10-05T04:01:33.022Z,74.55
2017-10-05T04:02:01.042Z,75.22
2017-10-05T04:02:29.157Z,74.84
2017-10-05T04:02:57.263Z,75.09
2017-10-05T04:03:25.248Z,75.7
2017-10-05T04:03:53.342Z,75.7
2017-10-05T04:04:21.377Z,75.66
2017-10-05T04:04:49.484Z,75.6
2017-10-05T04:05:17.482Z,75.7
2017-10-05T04:05:45.720Z,75.7
2017-10-05T04:06:13.627Z,75.79
2017-10-05T04:06:41.592Z,75.56
2017-10-05T04:07:09.481Z,76.33
2017-10-05T04:07:37.573Z,76.08
2017-10-05T04:08:05.669Z,76.14
2017-10-05T04:08:33.686Z,75.89
2017-10-05T04:09:01.795Z,75.79
2017-10-05T04:09:29.678Z,75.76
2017-10-05T04:09:57.681Z,75.85
2017-10-05T04:10:25.774Z,76.23
2017-10-05T04:10:53.941Z,76.52
2017-10-05T04:11:22.048Z,76.52
2017-10-05T04:11:50.045Z,76.71
2017-10-05T04:12:17.999Z,76.9
2017-10-05T04:12:46.035Z,77.09
2017-10-05T04:13:14.051Z,76.81
2017-10-05T04:13:42.168Z,77.19
2017-10-05T04:14:10.281Z,77.09
2017-10-05T04:14:38.297Z,77.38
2017-10-05T04:15:06.374Z,76.9
2017-10-05T04:15:34.590Z,77.28
2017-10-05T04:16:02.681Z,77.38
2017-10-05T04:16:30.840Z,77.48
2017-10-05T04:16:58.713Z,77.28
2017-10-05T04:17:26.798Z,77.19
2017-10-05T04:17:54.684Z,77.28
2017-10-05T04:18:22.615Z,77.38
2017-10-05T04:18:50.748Z,77.28
2017-10-05T04:19:18.629Z,77.48
2017-10-05T04:19:46.445Z,77.48
2017-10-05T04:20:14.539Z,77.38
2017-10-05T04:20:42.789Z,77.57
2017-10-05T04:21:10.807Z,77.67
2017-10-05T04:21:38.785Z,77.67
2017-10-05T04:22:06.891Z,78.14
2017-10-05T04:22:34.872Z,78.14
2017-10-05T04:23:02.994Z,78.34
2017-10-05T04:23:31.030Z,78.43
2017-10-05T04:23:59.116Z,78.43
2017-10-05T04:24:27.244Z,78.34
2017-10-05T04:24:55.369Z,78.34
2017-10-05T04:25:23.394Z,78.53
2017-10-05T04:25:51.563Z,78.34
2017-10-05T04:26:19.526Z,78.72
2017-10-05T04:26:47.536Z,78.63
2017-10-05T04:27:15.640Z,78.34
2017-10-05T04:27:43.560Z,78.72
2017-10-05T04:28:11.439Z,78.53
2017-10-05T04:28:39.345Z,78.72
2017-10-05T04:29:07.367Z,78.34
2017-10-05T04:29:35.262Z,78.53
2017-10-05T04:30:03.372Z,78.63
2017-10-05T04:30:31.429Z,78.63
2017-10-05T04:30:59.599Z,78.72
2017-10-05T04:31:27.450Z,78.53
2017-10-05T04:31:55.569Z,78.91
2017-10-05T04:32:23.585Z,78.91
2017-10-05T04:32:51.588Z,79.39
2017-10-05T04:33:19.689Z,79.2
2017-10-05T04:33:47.693Z,79.2
2017-10-05T04:34:15.800Z,79
2017-10-05T04:34:43.709Z,79.2
2017-10-05T04:35:11.776Z,79.1
2017-10-05T04:35:39.881Z,79.2
2017-10-05T04:36:08.096Z,79.49
2017-10-05T04:36:36.012Z,79.64
2017-10-05T04:37:04.102Z,79.93
2017-10-05T04:37:32.212Z,79.68
2017-10-05T04:38:00.130Z,79.87
2017-10-05T04:38:28.115Z,80.02
2017-10-05T04:38:56.036Z,79.58
2017-10-05T04:39:24.134Z,79.49
2017-10-05T04:39:52.271Z,79.87
2017-10-05T04:40:20.267Z,79.96
2017-10-05T04:40:48.361Z,80.25
2017-10-05T04:41:16.354Z,79.83
2017-10-05T04:41:44.451Z,79.87
2017-10-05T04:42:12.341Z,80.63
2017-10-05T04:42:40.482Z,80.16
2017-10-05T04:43:08.603Z,80.63
2017-10-05T04:43:36.695Z,80.44
2017-10-05T04:44:04.677Z,80.25
2017-10-05T04:44:32.575Z,80.25
2017-10-05T04:45:00.697Z,79.87
2017-10-05T04:45:28.731Z,80.44
2017-10-05T04:45:56.923Z,80.54
2017-10-05T04:46:24.939Z,80.25
2017-10-05T04:46:52.811Z,80.54
2017-10-05T04:47:20.904Z,80.54
2017-10-05T04:47:48.990Z,80.16
2017-10-05T04:48:17.076Z,80.35
2017-10-05T04:48:45.164Z,80.44
2017-10-05T04:49:13.133Z,80.06
2017-10-05T04:49:41.039Z,80.3
2017-10-05T04:50:08.922Z,80.5
2017-10-05T04:50:36.955Z,80.79
2017-10-05T04:51:05.130Z,80.79
2017-10-05T04:51:33.243Z,80.92
2017-10-05T04:52:01.346Z,80.79
2017-10-05T04:52:29.329Z,80.5
2017-10-05T04:52:57.335Z,81.26
2017-10-05T04:53:25.246Z,81.16
2017-10-05T04:53:53.396Z,81.07
2017-10-05T04:54:21.394Z,81.16
2017-10-05T04:54:49.403Z,81.26
2017-10-05T04:55:17.434Z,81.84
2017-10-05T04:55:45.328Z,81.45
2017-10-05T04:56:13.579Z,81.16
2017-10-05T04:56:41.683Z,81.36
2017-10-05T04:57:09.780Z,81.36
2017-10-05T04:57:37.666Z,81.07
2017-10-05T04:58:05.679Z,81.16
2017-10-05T04:58:33.813Z,81.55
2017-10-05T04:59:01.741Z,81.93
2017-10-05T04:59:29.676Z,82.03
2017-10-05T04:59:57.698Z,81.74
2017-10-05T05:00:25.823Z,81.65
2017-10-05T05:00:53.816Z,81.45
2017-10-05T05:01:22.008Z,81.65
2017-10-05T05:01:50.006Z,81.55
2017-10-05T05:02:18.021Z,81.45
2017-10-05T05:02:46.057Z,81.84
2017-10-05T05:03:13.862Z,82.12
2017-10-05T05:03:41.759Z,82.31
2017-10-05T05:04:09.791Z,82.51
2017-10-05T05:04:37.687Z,82.89
2017-10-05T05:05:05.662Z,82.98
2017-10-05T05:05:33.450Z,82.7
2017-10-05T05:06:01.542Z,82.64
2017-10-05T05:06:29.626Z,82.89
2017-10-05T05:06:57.617Z,82.6
2017-10-05T05:07:25.723Z,82.74
2017-10-05T05:07:53.704Z,83.12
2017-10-05T05:08:21.810Z,82.83
2017-10-05T05:08:49.794Z,82.54
2017-10-05T05:09:17.852Z,82.93
2017-10-05T05:09:45.739Z,82.35
2017-10-05T05:10:13.853Z,82.64
2017-10-05T05:10:41.947Z,81.97
2017-10-05T05:11:10.167Z,82.26
2017-10-05T05:11:38.174Z,81.88
2017-10-05T05:12:06.090Z,81.97
2017-10-05T05:12:34.092Z,81.88
2017-10-05T05:13:02.102Z,81.88
2017-10-05T05:13:30.119Z,81.97
2017-10-05T05:13:58.012Z,82.54
2017-10-05T05:14:26.003Z,82.54
2017-10-05T05:14:53.979Z,82.45
2017-10-05T05:15:22.071Z,82.45
2017-10-05T05:15:50.112Z,82.6
2017-10-05T05:16:18.244Z,82.74
2017-10-05T05:16:46.248Z,82.93
2017-10-05T05:17:14.332Z,83.12
2017-10-05T05:17:42.479Z,83.6
2017-10-05T05:18:10.516Z,82.93
2017-10-05T05:18:38.508Z,83.4
2017-10-05T05:19:06.504Z,83.03
2017-10-05T05:19:34.628Z,83.12
2017-10-05T05:20:02.632Z,82.74
2017-10-05T05:20:30.678Z,82.74
2017-10-05T05:20:58.810Z,83.31
2017-10-05T05:21:26.998Z,83.5
2017-10-05T05:21:55.016Z,83.89
2017-10-05T05:22:22.910Z,84.08
2017-10-05T05:22:50.830Z,83.79
2017-10-05T05:23:18.890Z,83.89
2017-10-05T05:23:47.016Z,84.36
2017-10-05T05:24:15.107Z,84.46
2017-10-05T05:24:43.230Z,84.46
2017-10-05T05:25:11.252Z,83.98
2017-10-05T05:25:39.408Z,84.27
2017-10-05T05:26:07.245Z,84.55
2017-10-05T05:26:35.525Z,84.65
2017-10-05T05:27:03.422Z,84.55
2017-10-05T05:27:31.558Z,84.46
2017-10-05T05:27:59.519Z,84.32
2017-10-05T05:28:27.498Z,84.65
2017-10-05T05:28:55.585Z,84.55
2017-10-05T05:29:23.703Z,84.46
2017-10-05T05:29:51.738Z,84.75
2017-10-05T05:30:19.858Z,84.65
2017-10-05T05:30:47.991Z,84.46
2017-10-05T05:31:16.105Z,84.27
2017-10-05T05:31:43.979Z,84.27
2017-10-05T05:32:11.902Z,84.75
2017-10-05T05:32:40.015Z,84.65
2017-10-05T05:33:08.052Z,84.55
2017-10-05T05:33:36.142Z,84.46
2017-10-05T05:34:04.134Z,84.65
2017-10-05T05:34:32.055Z,84.65
2017-10-05T05:35:00.081Z,85.32
2017-10-05T05:35:28.179Z,85.13
2017-10-05T05:35:56.184Z,84.89
2017-10-05T05:36:24.349Z,84.99
2017-10-05T05:36:52.320Z,85.28
2017-10-05T05:37:20.237Z,85.66
2017-10-05T05:37:48.353Z,85.47
2017-10-05T05:38:16.457Z,85.75
2017-10-05T05:38:44.556Z,85.85
2017-10-05T05:39:12.690Z,85.89
2017-10-05T05:39:40.717Z,85.75
2017-10-05T05:40:08.734Z,85.85
2017-10-05T05:40:36.756Z,85.85
2017-10-05T05:41:04.865Z,85.66
2017-10-05T05:41:33.068Z,85.85
2017-10-05T05:42:00.776Z,86.23
2017-10-05T05:42:28.887Z,86.14
2017-10-05T05:42:56.900Z,86.14
2017-10-05T05:43:24.976Z,86.61
2017-10-05T05:43:53.024Z,86.52
2017-10-05T05:44:20.978Z,86.61
2017-10-05T05:44:48.980Z,86.04
2017-10-05T05:45:17.015Z,86.14
2017-10-05T05:45:44.922Z,86.33
2017-10-05T05:46:13.007Z,86.47
2017-10-05T05:46:41.214Z,86.33
2017-10-05T05:47:09.342Z,86.33
2017-10-05T05:47:37.285Z,86.14
2017-10-05T05:48:05.301Z,86.18
2017-10-05T05:48:33.406Z,86.43
2017-10-05T05:49:01.535Z,86.14
2017-10-05T05:49:29.610Z,86.04
2017-10-05T05:49:57.613Z,86.43
2017-10-05T05:50:25.536Z,86.71
2017-10-05T05:50:53.647Z,87
2017-10-05T05:51:21.639Z,86.8
2017-10-05T05:51:49.757Z,87
2017-10-05T05:52:17.681Z,87.19
2017-10-05T05:52:45.584Z,87
2017-10-05T05:53:13.590Z,87.38
2017-10-05T05:53:41.604Z,87.29
2017-10-05T05:54:09.634Z,87.29
2017-10-05T05:54:37.627Z,87.66
2017-10-05T05:55:05.637Z,87.38
2017-10-05T05:55:33.508Z,87.19
2017-10-05T05:56:01.513Z,87.38
2017-10-05T05:56:29.630Z,87.29
2017-10-05T05:56:57.745Z,87.19
2017-10-05T05:57:25.622Z,87.29
2017-10-05T05:57:53.579Z,87.29
2017-10-05T05:58:21.531Z,87.48
2017-10-05T05:58:49.367Z,87.38
2017-10-05T05:59:17.247Z,87.29
2017-10-05T05:59:45.146Z,87.38
2017-10-05T06:00:13.046Z,87.38
2017-10-05T06:00:40.980Z,88.05
2017-10-05T06:01:09.110Z,87.86
2017-10-05T06:01:37.192Z,87.76
2017-10-05T06:02:05.233Z,87.86
2017-10-05T06:02:33.334Z,88.15
2017-10-05T06:03:01.344Z,88.81
2017-10-05T06:03:29.458Z,88.43
2017-10-05T06:03:57.484Z,88.62
2017-10-05T06:04:25.606Z,88.62
2017-10-05T06:04:53.590Z,88.53
2017-10-05T06:05:21.599Z,88.34
2017-10-05T06:05:49.619Z,88.62
2017-10-05T06:06:17.556Z,88.62
2017-10-05T06:06:45.683Z,88.62
2017-10-05T06:07:13.717Z,88.34
2017-10-05T06:07:41.813Z,88.62
2017-10-05T06:08:09.843Z,89.29
2017-10-05T06:08:37.765Z,89.77
2017-10-05T06:09:05.912Z,89.48
2017-10-05T06:09:33.932Z,89.77
2017-10-05T06:10:01.930Z,89.1
2017-10-05T06:10:30.054Z,89.1